sensor_id;sensor_type;location;lat;lon;timestamp;pressure;altitude;pressure_sealevel;temperature;humidity
76827;BME280;65788;52.284;20.890;2023-06-22T00:02:04;100484.11;;;25.17;59.67
76827;BME280;65788;52.284;20.890;2023-06-22T00:04:31;100480.95;;;25.16;59.66
76827;BME280;65788;52.284;20.890;2023-06-22T00:06:57;100477.75;;;25.18;59.56
76827;BME280;65788;52.284;20.890;2023-06-22T00:09:25;100479.17;;;25.16;59.43
76827;BME280;65788;52.284;20.890;2023-06-22T00:11:53;100480.36;;;25.17;59.51
76827;BME280;65788;52.284;20.890;2023-06-22T00:14:19;100483.96;;;25.14;59.49
76827;BME280;65788;52.284;20.890;2023-06-22T00:16:47;100481.30;;;25.16;59.33
76827;BME280;65788;52.284;20.890;2023-06-22T00:19:15;100480.44;;;25.15;59.45
76827;BME280;65788;52.284;20.890;2023-06-22T00:21:42;100482.83;;;25.14;59.51
76827;BME280;65788;52.284;20.890;2023-06-22T00:24:10;100478.80;;;25.14;59.50
76827;BME280;65788;52.284;20.890;2023-06-22T00:26:37;100479.65;;;25.15;59.39
76827;BME280;65788;52.284;20.890;2023-06-22T00:29:04;100474.58;;;25.13;59.35
76827;BME280;65788;52.284;20.890;2023-06-22T00:31:31;100477.77;;;25.11;59.32
76827;BME280;65788;52.284;20.890;2023-06-22T00:33:58;100473.31;;;25.09;59.42
76827;BME280;65788;52.284;20.890;2023-06-22T00:36:25;100472.69;;;25.09;59.39
76827;BME280;65788;52.284;20.890;2023-06-22T00:38:53;100474.46;;;25.07;59.41
76827;BME280;65788;52.284;20.890;2023-06-22T00:41:19;100471.04;;;25.07;59.35
76827;BME280;65788;52.284;20.890;2023-06-22T00:43:46;100474.59;;;25.04;59.42
76827;BME280;65788;52.284;20.890;2023-06-22T00:46:14;100470.50;;;25.04;59.38
76827;BME280;65788;52.284;20.890;2023-06-22T00:48:41;100473.84;;;25.03;59.37
76827;BME280;65788;52.284;20.890;2023-06-22T00:51:12;100473.95;;;25.03;59.31
76827;BME280;65788;52.284;20.890;2023-06-22T00:53:39;100470.73;;;25.01;59.40
76827;BME280;65788;52.284;20.890;2023-06-22T00:56:07;100467.52;;;25.00;59.38
76827;BME280;65788;52.284;20.890;2023-06-22T00:58:37;100464.63;;;25.00;59.54
76827;BME280;65788;52.284;20.890;2023-06-22T01:01:03;100462.72;;;25.01;59.32
76827;BME280;65788;52.284;20.890;2023-06-22T01:03:30;100458.51;;;24.99;59.54
76827;BME280;65788;52.284;20.890;2023-06-22T01:06:02;100453.38;;;25.01;59.25
76827;BME280;65788;52.284;20.890;2023-06-22T01:09:01;100451.70;;;25.01;59.36
76827;BME280;65788;52.284;20.890;2023-06-22T01:11:41;100447.23;;;24.97;59.31
76827;BME280;65788;52.284;20.890;2023-06-22T01:14:23;100446.37;;;24.97;59.22
76827;BME280;65788;52.284;20.890;2023-06-22T01:16:54;100444.88;;;24.98;59.08
76827;BME280;65788;52.284;20.890;2023-06-22T01:19:36;100445.15;;;24.96;59.14
76827;BME280;65788;52.284;20.890;2023-06-22T01:22:06;100444.93;;;24.98;59.00
76827;BME280;65788;52.284;20.890;2023-06-22T01:29:59;100437.99;;;24.95;59.12
76827;BME280;65788;52.284;20.890;2023-06-22T01:32:32;100434.94;;;24.95;59.02
76827;BME280;65788;52.284;20.890;2023-06-22T01:35:01;100433.61;;;24.93;59.13
76827;BME280;65788;52.284;20.890;2023-06-22T01:37:33;100438.91;;;24.95;59.12
76827;BME280;65788;52.284;20.890;2023-06-22T01:40:04;100443.83;;;24.94;59.07
76827;BME280;65788;52.284;20.890;2023-06-22T01:42:35;100441.95;;;24.92;59.11
76827;BME280;65788;52.284;20.890;2023-06-22T01:45:04;100441.83;;;24.92;59.10
76827;BME280;65788;52.284;20.890;2023-06-22T01:47:33;100449.25;;;24.94;59.03
76827;BME280;65788;52.284;20.890;2023-06-22T01:50:00;100447.58;;;24.94;59.00
76827;BME280;65788;52.284;20.890;2023-06-22T01:52:27;100448.36;;;24.94;59.11
76827;BME280;65788;52.284;20.890;2023-06-22T01:54:55;100449.28;;;24.96;58.87
76827;BME280;65788;52.284;20.890;2023-06-22T01:57:24;100450.29;;;24.96;58.89
76827;BME280;65788;52.284;20.890;2023-06-22T02:00:00;100458.04;;;24.93;59.05
76827;BME280;65788;52.284;20.890;2023-06-22T02:02:56;100468.98;;;24.92;58.99
76827;BME280;65788;52.284;20.890;2023-06-22T02:05:23;100469.65;;;24.92;58.88
76827;BME280;65788;52.284;20.890;2023-06-22T02:08:06;100477.16;;;24.92;58.96
76827;BME280;65788;52.284;20.890;2023-06-22T02:10:38;100487.09;;;24.89;59.05
76827;BME280;65788;52.284;20.890;2023-06-22T02:13:09;100489.17;;;24.86;59.12
76827;BME280;65788;52.284;20.890;2023-06-22T02:15:37;100481.58;;;24.87;59.01
76827;BME280;65788;52.284;20.890;2023-06-22T02:18:05;100482.50;;;24.89;58.97
76827;BME280;65788;52.284;20.890;2023-06-22T02:20:31;100483.61;;;24.89;59.03
76827;BME280;65788;52.284;20.890;2023-06-22T02:22:59;100487.36;;;24.88;58.95
76827;BME280;65788;52.284;20.890;2023-06-22T02:25:26;100487.88;;;24.86;59.02
76827;BME280;65788;52.284;20.890;2023-06-22T02:27:53;100491.94;;;24.84;59.16
76827;BME280;65788;52.284;20.890;2023-06-22T02:30:21;100498.85;;;24.85;59.09
76827;BME280;65788;52.284;20.890;2023-06-22T02:32:47;100504.21;;;24.81;59.18
76827;BME280;65788;52.284;20.890;2023-06-22T02:35:14;100504.36;;;24.84;58.97
76827;BME280;65788;52.284;20.890;2023-06-22T02:37:42;100515.39;;;24.84;59.16
76827;BME280;65788;52.284;20.890;2023-06-22T02:40:10;100521.33;;;24.84;59.15
76827;BME280;65788;52.284;20.890;2023-06-22T02:42:37;100522.61;;;24.81;59.23
76827;BME280;65788;52.284;20.890;2023-06-22T02:45:06;100524.95;;;24.80;59.37
76827;BME280;65788;52.284;20.890;2023-06-22T02:47:33;100525.77;;;24.79;59.38
76827;BME280;65788;52.284;20.890;2023-06-22T02:50:00;100530.21;;;24.77;59.32
76827;BME280;65788;52.284;20.890;2023-06-22T02:52:29;100535.17;;;24.78;59.29
76827;BME280;65788;52.284;20.890;2023-06-22T02:54:55;100539.33;;;24.79;59.29
76827;BME280;65788;52.284;20.890;2023-06-22T02:57:22;100538.44;;;24.80;59.15
76827;BME280;65788;52.284;20.890;2023-06-22T02:59:50;100540.70;;;24.77;59.49
76827;BME280;65788;52.284;20.890;2023-06-22T03:02:17;100537.68;;;24.78;59.40
76827;BME280;65788;52.284;20.890;2023-06-22T03:04:44;100540.09;;;24.78;59.23
76827;BME280;65788;52.284;20.890;2023-06-22T03:07:12;100545.94;;;24.80;59.32
76827;BME280;65788;52.284;20.890;2023-06-22T03:09:38;100550.71;;;24.77;59.50
76827;BME280;65788;52.284;20.890;2023-06-22T03:12:06;100550.64;;;24.72;59.74
76827;BME280;65788;52.284;20.890;2023-06-22T03:14:34;100552.51;;;24.77;59.55
76827;BME280;65788;52.284;20.890;2023-06-22T03:17:01;100557.98;;;24.77;59.59
76827;BME280;65788;52.284;20.890;2023-06-22T03:19:29;100555.74;;;24.77;59.67
76827;BME280;65788;52.284;20.890;2023-06-22T03:22:00;100556.09;;;24.75;59.69
76827;BME280;65788;52.284;20.890;2023-06-22T03:24:27;100554.33;;;24.79;59.57
76827;BME280;65788;52.284;20.890;2023-06-22T03:26:58;100553.52;;;24.78;59.70
76827;BME280;65788;52.284;20.890;2023-06-22T03:29:25;100551.41;;;24.79;59.51
76827;BME280;65788;52.284;20.890;2023-06-22T03:31:52;100554.84;;;24.80;59.61
76827;BME280;65788;52.284;20.890;2023-06-22T03:34:20;100559.02;;;24.78;59.38
76827;BME280;65788;52.284;20.890;2023-06-22T03:36:47;100557.50;;;24.79;59.60
76827;BME280;65788;52.284;20.890;2023-06-22T03:39:14;100569.39;;;24.79;59.67
76827;BME280;65788;52.284;20.890;2023-06-22T03:41:42;100573.98;;;24.79;59.67
76827;BME280;65788;52.284;20.890;2023-06-22T03:44:08;100579.12;;;24.75;59.83
76827;BME280;65788;52.284;20.890;2023-06-22T03:46:41;100578.32;;;24.78;59.72
76827;BME280;65788;52.284;20.890;2023-06-22T03:49:08;100583.92;;;24.78;59.77
76827;BME280;65788;52.284;20.890;2023-06-22T03:51:34;100590.80;;;24.78;59.85
76827;BME280;65788;52.284;20.890;2023-06-22T03:54:02;100586.39;;;24.75;59.90
76827;BME280;65788;52.284;20.890;2023-06-22T03:56:29;100585.95;;;24.75;59.89
76827;BME280;65788;52.284;20.890;2023-06-22T03:58:56;100587.28;;;24.78;59.89
76827;BME280;65788;52.284;20.890;2023-06-22T04:01:24;100587.45;;;24.79;59.92
76827;BME280;65788;52.284;20.890;2023-06-22T04:03:50;100590.20;;;24.78;59.82
76827;BME280;65788;52.284;20.890;2023-06-22T04:06:17;100587.61;;;24.78;59.79
76827;BME280;65788;52.284;20.890;2023-06-22T04:08:45;100592.39;;;24.80;59.55
76827;BME280;65788;52.284;20.890;2023-06-22T04:11:14;100594.33;;;24.78;59.83
76827;BME280;65788;52.284;20.890;2023-06-22T04:13:44;100591.54;;;24.78;59.97
76827;BME280;65788;52.284;20.890;2023-06-22T04:16:10;100597.11;;;24.77;59.86
76827;BME280;65788;52.284;20.890;2023-06-22T04:18:37;100598.23;;;24.77;59.69
76827;BME280;65788;52.284;20.890;2023-06-22T04:21:05;100599.81;;;24.78;59.72
76827;BME280;65788;52.284;20.890;2023-06-22T04:23:32;100603.10;;;24.77;59.89
76827;BME280;65788;52.284;20.890;2023-06-22T04:25:58;100605.25;;;24.72;60.13
76827;BME280;65788;52.284;20.890;2023-06-22T04:28:27;100611.35;;;24.68;60.14
76827;BME280;65788;52.284;20.890;2023-06-22T04:30:54;100616.29;;;24.72;60.16
76827;BME280;65788;52.284;20.890;2023-06-22T04:33:30;100614.20;;;24.72;60.13
76827;BME280;65788;52.284;20.890;2023-06-22T04:35:58;100613.60;;;24.72;60.28
76827;BME280;65788;52.284;20.890;2023-06-22T04:38:28;100613.87;;;24.68;60.43
76827;BME280;65788;52.284;20.890;2023-06-22T04:40:55;100616.77;;;24.68;60.48
76827;BME280;65788;52.284;20.890;2023-06-22T04:43:24;100610.08;;;24.67;60.56
76827;BME280;65788;52.284;20.890;2023-06-22T04:45:51;100606.50;;;24.73;60.30
76827;BME280;65788;52.284;20.890;2023-06-22T04:48:20;100603.93;;;24.72;60.37
76827;BME280;65788;52.284;20.890;2023-06-22T04:50:46;100606.13;;;24.67;60.75
76827;BME280;65788;52.284;20.890;2023-06-22T04:53:14;100603.46;;;24.65;60.69
76827;BME280;65788;52.284;20.890;2023-06-22T04:55:41;100607.48;;;24.60;61.10
76827;BME280;65788;52.284;20.890;2023-06-22T04:58:08;100608.59;;;24.41;62.02
76827;BME280;65788;52.284;20.890;2023-06-22T05:00:36;100609.74;;;24.22;63.20
76827;BME280;65788;52.284;20.890;2023-06-22T05:03:02;100605.44;;;23.86;65.15
76827;BME280;65788;52.284;20.890;2023-06-22T05:05:30;100603.35;;;23.91;64.67
76827;BME280;65788;52.284;20.890;2023-06-22T05:07:58;100603.50;;;23.95;64.94
76827;BME280;65788;52.284;20.890;2023-06-22T05:10:27;100602.48;;;24.02;64.68
76827;BME280;65788;52.284;20.890;2023-06-22T05:12:58;100604.34;;;23.56;66.17
76827;BME280;65788;52.284;20.890;2023-06-22T05:15:25;100607.13;;;23.45;66.50
76827;BME280;65788;52.284;20.890;2023-06-22T05:17:57;100609.86;;;23.23;67.29
76827;BME280;65788;52.284;20.890;2023-06-22T05:20:25;100610.90;;;23.26;67.27
76827;BME280;65788;52.284;20.890;2023-06-22T05:22:51;100612.33;;;24.08;64.63
76827;BME280;65788;52.284;20.890;2023-06-22T05:25:19;100610.02;;;23.64;66.79
76827;BME280;65788;52.284;20.890;2023-06-22T05:27:46;100611.16;;;23.36;68.19
76827;BME280;65788;52.284;20.890;2023-06-22T05:30:13;100615.73;;;23.61;66.94
76827;BME280;65788;52.284;20.890;2023-06-22T05:32:41;100619.95;;;23.55;67.46
76827;BME280;65788;52.284;20.890;2023-06-22T05:35:10;100622.73;;;23.79;66.59
76827;BME280;65788;52.284;20.890;2023-06-22T05:37:36;100626.65;;;24.23;64.88
76827;BME280;65788;52.284;20.890;2023-06-22T05:40:05;100630.19;;;24.02;65.47
76827;BME280;65788;52.284;20.890;2023-06-22T05:42:33;100635.91;;;24.00;66.28
76827;BME280;65788;52.284;20.890;2023-06-22T05:45:00;100632.63;;;24.05;66.10
76827;BME280;65788;52.284;20.890;2023-06-22T05:47:28;100635.98;;;23.93;66.43
76827;BME280;65788;52.284;20.890;2023-06-22T05:49:54;100641.46;;;23.65;68.03
76827;BME280;65788;52.284;20.890;2023-06-22T05:52:21;100642.80;;;24.25;64.81
76827;BME280;65788;52.284;20.890;2023-06-22T05:54:49;100642.85;;;24.51;64.02
76827;BME280;65788;52.284;20.890;2023-06-22T05:57:18;100637.26;;;24.16;65.20
76827;BME280;65788;52.284;20.890;2023-06-22T05:59:44;100629.83;;;24.40;64.06
76827;BME280;65788;52.284;20.890;2023-06-22T06:02:12;100629.11;;;24.55;63.64
76827;BME280;65788;52.284;20.890;2023-06-22T06:04:39;100633.45;;;24.66;63.20
76827;BME280;65788;52.284;20.890;2023-06-22T06:07:06;100642.36;;;24.40;64.36
76827;BME280;65788;52.284;20.890;2023-06-22T06:09:34;100653.21;;;23.83;66.83
76827;BME280;65788;52.284;20.890;2023-06-22T06:12:01;100653.71;;;24.26;64.96
76827;BME280;65788;52.284;20.890;2023-06-22T06:14:29;100655.35;;;24.49;63.72
76827;BME280;65788;52.284;20.890;2023-06-22T06:16:57;100658.54;;;24.18;65.04
76827;BME280;65788;52.284;20.890;2023-06-22T06:19:24;100656.63;;;23.91;65.69
76827;BME280;65788;52.284;20.890;2023-06-22T06:21:51;100656.67;;;23.73;66.29
76827;BME280;65788;52.284;20.890;2023-06-22T06:24:18;100659.98;;;23.76;66.29
76827;BME280;65788;52.284;20.890;2023-06-22T06:26:45;100655.26;;;23.67;66.47
76827;BME280;65788;52.284;20.890;2023-06-22T06:29:12;100652.44;;;23.99;65.15
76827;BME280;65788;52.284;20.890;2023-06-22T06:31:39;100654.02;;;24.27;63.75
76827;BME280;65788;52.284;20.890;2023-06-22T06:34:07;100651.15;;;23.93;65.19
76827;BME280;65788;52.284;20.890;2023-06-22T06:36:37;100657.49;;;24.18;64.11
76827;BME280;65788;52.284;20.890;2023-06-22T06:39:04;100651.86;;;23.95;65.33
76827;BME280;65788;52.284;20.890;2023-06-22T06:41:31;100649.94;;;24.07;65.50
76827;BME280;65788;52.284;20.890;2023-06-22T06:43:59;100650.45;;;24.42;63.85
76827;BME280;65788;52.284;20.890;2023-06-22T06:46:27;100651.36;;;24.58;62.99
76827;BME280;65788;52.284;20.890;2023-06-22T06:48:53;100646.53;;;24.70;62.53
76827;BME280;65788;52.284;20.890;2023-06-22T06:51:21;100646.51;;;24.69;62.51
76827;BME280;65788;52.284;20.890;2023-06-22T06:53:48;100647.65;;;24.70;62.21
76827;BME280;65788;52.284;20.890;2023-06-22T06:56:15;100652.73;;;24.73;62.82
76827;BME280;65788;52.284;20.890;2023-06-22T06:58:46;100647.77;;;24.83;63.25
76827;BME280;65788;52.284;20.890;2023-06-22T07:01:12;100652.85;;;24.90;62.47
76827;BME280;65788;52.284;20.890;2023-06-22T07:03:39;100647.04;;;24.68;62.68
76827;BME280;65788;52.284;20.890;2023-06-22T07:06:08;100645.25;;;24.80;62.20
76827;BME280;65788;52.284;20.890;2023-06-22T07:08:35;100647.05;;;24.81;62.00
76827;BME280;65788;52.284;20.890;2023-06-22T07:11:03;100644.84;;;24.72;62.14
76827;BME280;65788;52.284;20.890;2023-06-22T07:13:31;100645.86;;;24.71;62.01
76827;BME280;65788;52.284;20.890;2023-06-22T07:15:58;100647.52;;;24.69;62.05
76827;BME280;65788;52.284;20.890;2023-06-22T07:18:25;100656.13;;;24.58;61.64
76827;BME280;65788;52.284;20.890;2023-06-22T07:20:55;100659.55;;;24.60;61.78
76827;BME280;65788;52.284;20.890;2023-06-22T07:23:23;100662.73;;;24.55;61.75
76827;BME280;65788;52.284;20.890;2023-06-22T07:25:49;100665.29;;;24.62;61.58
76827;BME280;65788;52.284;20.890;2023-06-22T07:28:17;100670.38;;;24.83;61.06
76827;BME280;65788;52.284;20.890;2023-06-22T07:30:44;100669.83;;;24.83;61.35
76827;BME280;65788;52.284;20.890;2023-06-22T07:33:10;100675.66;;;24.91;61.31
76827;BME280;65788;52.284;20.890;2023-06-22T07:35:39;100670.98;;;24.89;60.47
76827;BME280;65788;52.284;20.890;2023-06-22T07:38:05;100667.65;;;24.95;59.55
76827;BME280;65788;52.284;20.890;2023-06-22T07:40:33;100667.11;;;24.95;59.07
76827;BME280;65788;52.284;20.890;2023-06-22T07:43:02;100669.15;;;24.94;59.05
76827;BME280;65788;52.284;20.890;2023-06-22T07:45:30;100673.50;;;24.92;58.81
76827;BME280;65788;52.284;20.890;2023-06-22T07:48:01;100668.73;;;24.88;57.92
76827;BME280;65788;52.284;20.890;2023-06-22T07:50:28;100666.81;;;24.88;57.65
76827;BME280;65788;52.284;20.890;2023-06-22T07:52:54;100669.66;;;25.00;57.60
76827;BME280;65788;52.284;20.890;2023-06-22T07:55:22;100671.44;;;24.99;57.32
76827;BME280;65788;52.284;20.890;2023-06-22T07:57:49;100671.95;;;24.84;57.27
76827;BME280;65788;52.284;20.890;2023-06-22T08:02:07;100667.54;;;25.07;57.56
76827;BME280;65788;52.284;20.890;2023-06-22T08:04:35;100667.86;;;25.06;56.75
76827;BME280;65788;52.284;20.890;2023-06-22T08:07:02;100667.68;;;24.96;57.21
76827;BME280;65788;52.284;20.890;2023-06-22T08:09:31;100664.48;;;24.98;56.99
76827;BME280;65788;52.284;20.890;2023-06-22T08:11:59;100664.27;;;24.96;56.91
76827;BME280;65788;52.284;20.890;2023-06-22T08:14:29;100659.80;;;24.93;56.74
76827;BME280;65788;52.284;20.890;2023-06-22T08:16:56;100661.38;;;24.93;56.50
76827;BME280;65788;52.284;20.890;2023-06-22T08:19:23;100662.79;;;24.88;56.40
76827;BME280;65788;52.284;20.890;2023-06-22T08:21:50;100661.27;;;24.81;56.53
76827;BME280;65788;52.284;20.890;2023-06-22T08:24:17;100660.41;;;24.80;56.48
76827;BME280;65788;52.284;20.890;2023-06-22T08:26:43;100660.66;;;24.84;56.23
76827;BME280;65788;52.284;20.890;2023-06-22T08:29:10;100660.86;;;24.83;56.25
76827;BME280;65788;52.284;20.890;2023-06-22T08:31:37;100663.67;;;24.81;56.17
76827;BME280;65788;52.284;20.890;2023-06-22T08:34:05;100664.95;;;24.77;56.21
76827;BME280;65788;52.284;20.890;2023-06-22T08:36:34;100666.74;;;24.80;55.80
76827;BME280;65788;52.284;20.890;2023-06-22T08:39:07;100663.70;;;24.77;55.61
76827;BME280;65788;52.284;20.890;2023-06-22T08:41:34;100666.16;;;24.76;55.32
76827;BME280;65788;52.284;20.890;2023-06-22T08:44:01;100674.95;;;24.76;55.01
76827;BME280;65788;52.284;20.890;2023-06-22T08:46:29;100669.16;;;24.72;54.63
76827;BME280;65788;52.284;20.890;2023-06-22T08:48:59;100670.06;;;24.69;54.31
76827;BME280;65788;52.284;20.890;2023-06-22T08:51:26;100671.22;;;24.71;53.94
76827;BME280;65788;52.284;20.890;2023-06-22T08:53:53;100678.27;;;24.71;53.78
76827;BME280;65788;52.284;20.890;2023-06-22T08:56:20;100681.30;;;24.67;53.69
76827;BME280;65788;52.284;20.890;2023-06-22T08:58:47;100681.73;;;24.67;53.73
76827;BME280;65788;52.284;20.890;2023-06-22T09:01:13;100683.42;;;24.60;54.21
76827;BME280;65788;52.284;20.890;2023-06-22T09:03:42;100683.16;;;24.66;53.97
76827;BME280;65788;52.284;20.890;2023-06-22T09:06:08;100684.50;;;24.68;53.54
76827;BME280;65788;52.284;20.890;2023-06-22T09:08:40;100687.18;;;24.63;53.33
76827;BME280;65788;52.284;20.890;2023-06-22T09:11:07;100691.54;;;24.63;53.36
76827;BME280;65788;52.284;20.890;2023-06-22T09:13:34;100688.07;;;24.65;52.99
76827;BME280;65788;52.284;20.890;2023-06-22T09:16:01;100679.39;;;24.63;53.10
76827;BME280;65788;52.284;20.890;2023-06-22T09:18:27;100674.30;;;24.60;53.22
76827;BME280;65788;52.284;20.890;2023-06-22T09:20:54;100675.13;;;24.57;53.47
76827;BME280;65788;52.284;20.890;2023-06-22T09:23:21;100676.06;;;24.64;53.13
76827;BME280;65788;52.284;20.890;2023-06-22T09:25:48;100666.42;;;24.65;52.97
76827;BME280;65788;52.284;20.890;2023-06-22T09:28:15;100664.31;;;24.62;53.08
76827;BME280;65788;52.284;20.890;2023-06-22T09:30:45;100664.59;;;24.59;53.25
76827;BME280;65788;52.284;20.890;2023-06-22T09:33:11;100671.25;;;24.61;52.91
76827;BME280;65788;52.284;20.890;2023-06-22T09:35:38;100669.83;;;24.64;52.83
76827;BME280;65788;52.284;20.890;2023-06-22T09:38:06;100666.92;;;24.65;52.59
76827;BME280;65788;52.284;20.890;2023-06-22T09:40:32;100663.35;;;24.61;52.72
76827;BME280;65788;52.284;20.890;2023-06-22T09:43:01;100659.73;;;24.62;52.67
76827;BME280;65788;52.284;20.890;2023-06-22T09:45:28;100660.11;;;24.63;52.60
76827;BME280;65788;52.284;20.890;2023-06-22T09:47:55;100662.61;;;24.65;52.43
76827;BME280;65788;52.284;20.890;2023-06-22T09:50:22;100661.45;;;24.66;52.39
76827;BME280;65788;52.284;20.890;2023-06-22T09:52:49;100659.54;;;24.68;52.34
76827;BME280;65788;52.284;20.890;2023-06-22T09:55:21;100657.63;;;24.63;52.46
76827;BME280;65788;52.284;20.890;2023-06-22T09:57:48;100655.11;;;24.65;52.47
76827;BME280;65788;52.284;20.890;2023-06-22T10:00:17;100656.55;;;24.65;52.70
76827;BME280;65788;52.284;20.890;2023-06-22T10:02:46;100653.64;;;24.64;52.88
76827;BME280;65788;52.284;20.890;2023-06-22T10:05:12;100650.33;;;24.66;53.04
76827;BME280;65788;52.284;20.890;2023-06-22T10:07:40;100653.96;;;24.69;53.06
76827;BME280;65788;52.284;20.890;2023-06-22T10:10:10;100656.05;;;24.70;52.98
76827;BME280;65788;52.284;20.890;2023-06-22T10:12:55;100657.84;;;24.70;53.24
76827;BME280;65788;52.284;20.890;2023-06-22T10:15:22;100660.84;;;24.72;53.26
76827;BME280;65788;52.284;20.890;2023-06-22T10:17:49;100660.77;;;24.72;53.16
76827;BME280;65788;52.284;20.890;2023-06-22T10:20:15;100662.45;;;24.75;53.26
76827;BME280;65788;52.284;20.890;2023-06-22T10:22:45;100660.73;;;24.98;53.74
76827;BME280;65788;52.284;20.890;2023-06-22T10:25:13;100672.46;;;25.06;53.51
76827;BME280;65788;52.284;20.890;2023-06-22T10:27:39;100665.81;;;25.19;52.83
76827;BME280;65788;52.284;20.890;2023-06-22T10:30:08;100665.55;;;25.23;52.53
76827;BME280;65788;52.284;20.890;2023-06-22T10:32:35;100657.27;;;25.28;51.91
76827;BME280;65788;52.284;20.890;2023-06-22T10:35:03;100658.14;;;25.42;51.67
76827;BME280;65788;52.284;20.890;2023-06-22T10:37:30;100644.70;;;25.38;51.08
76827;BME280;65788;52.284;20.890;2023-06-22T10:39:57;100648.15;;;25.28;51.60
76827;BME280;65788;52.284;20.890;2023-06-22T10:42:24;100652.68;;;25.27;52.10
76827;BME280;65788;52.284;20.890;2023-06-22T10:44:51;100646.34;;;25.44;51.86
76827;BME280;65788;52.284;20.890;2023-06-22T10:47:17;100641.30;;;25.44;51.85
76827;BME280;65788;52.284;20.890;2023-06-22T10:49:44;100638.72;;;25.94;49.52
76827;BME280;65788;52.284;20.890;2023-06-22T10:52:10;100640.78;;;26.09;49.68
76827;BME280;65788;52.284;20.890;2023-06-22T10:54:37;100635.34;;;25.79;51.01
76827;BME280;65788;52.284;20.890;2023-06-22T10:57:05;100638.85;;;25.65;51.49
76827;BME280;65788;52.284;20.890;2023-06-22T10:59:32;100637.74;;;25.69;51.50
76827;BME280;65788;52.284;20.890;2023-06-22T11:01:59;100642.83;;;25.61;51.80
76827;BME280;65788;52.284;20.890;2023-06-22T11:04:25;100636.78;;;25.77;50.73
76827;BME280;65788;52.284;20.890;2023-06-22T11:06:52;100627.48;;;25.87;50.10
76827;BME280;65788;52.284;20.890;2023-06-22T11:09:20;100626.55;;;25.66;51.12
76827;BME280;65788;52.284;20.890;2023-06-22T11:11:49;100626.77;;;25.64;51.26
76827;BME280;65788;52.284;20.890;2023-06-22T11:14:16;100625.73;;;26.00;50.02
76827;BME280;65788;52.284;20.890;2023-06-22T11:16:43;100627.70;;;26.55;47.43
76827;BME280;65788;52.284;20.890;2023-06-22T11:19:10;100620.90;;;26.63;47.70
76827;BME280;65788;52.284;20.890;2023-06-22T11:21:36;100618.82;;;26.06;49.42
76827;BME280;65788;52.284;20.890;2023-06-22T11:24:05;100622.74;;;25.89;50.43
76827;BME280;65788;52.284;20.890;2023-06-22T11:26:33;100622.13;;;25.80;50.60
76827;BME280;65788;52.284;20.890;2023-06-22T11:29:00;100623.65;;;25.77;50.68
76827;BME280;65788;52.284;20.890;2023-06-22T11:31:27;100620.63;;;25.90;49.32
76827;BME280;65788;52.284;20.890;2023-06-22T11:33:54;100617.73;;;25.82;50.66
76827;BME280;65788;52.284;20.890;2023-06-22T11:36:20;100616.71;;;25.91;49.26
76827;BME280;65788;52.284;20.890;2023-06-22T11:38:47;100618.75;;;26.68;45.75
76827;BME280;65788;52.284;20.890;2023-06-22T11:41:14;100623.23;;;26.92;44.86
76827;BME280;65788;52.284;20.890;2023-06-22T11:43:40;100619.05;;;26.65;46.59
76827;BME280;65788;52.284;20.890;2023-06-22T11:46:08;100621.35;;;26.68;45.89
76827;BME280;65788;52.284;20.890;2023-06-22T11:48:35;100616.73;;;26.69;46.07
76827;BME280;65788;52.284;20.890;2023-06-22T11:51:02;100619.38;;;26.99;44.93
76827;BME280;65788;52.284;20.890;2023-06-22T11:53:30;100623.02;;;26.37;47.98
76827;BME280;65788;52.284;20.890;2023-06-22T11:56:00;100623.77;;;26.21;47.94
76827;BME280;65788;52.284;20.890;2023-06-22T11:58:27;100622.45;;;26.35;47.67
76827;BME280;65788;52.284;20.890;2023-06-22T12:00:54;100620.95;;;26.47;46.68
76827;BME280;65788;52.284;20.890;2023-06-22T12:03:22;100616.45;;;26.19;48.56
76827;BME280;65788;52.284;20.890;2023-06-22T12:05:50;100624.23;;;26.24;49.03
76827;BME280;65788;52.284;20.890;2023-06-22T12:08:18;100619.66;;;26.75;47.05
76827;BME280;65788;52.284;20.890;2023-06-22T12:10:45;100612.12;;;26.73;47.11
76827;BME280;65788;52.284;20.890;2023-06-22T12:13:11;100604.91;;;26.97;46.48
76827;BME280;65788;52.284;20.890;2023-06-22T12:15:38;100610.10;;;26.79;47.48
76827;BME280;65788;52.284;20.890;2023-06-22T12:18:05;100606.35;;;27.31;44.43
76827;BME280;65788;52.284;20.890;2023-06-22T12:20:31;100605.38;;;27.14;45.35
76827;BME280;65788;52.284;20.890;2023-06-22T12:22:58;100601.30;;;27.50;43.32
76827;BME280;65788;52.284;20.890;2023-06-22T12:25:25;100597.74;;;27.01;45.93
76827;BME280;65788;52.284;20.890;2023-06-22T12:27:51;100597.04;;;26.58;46.97
76827;BME280;65788;52.284;20.890;2023-06-22T12:30:18;100603.05;;;26.52;47.73
76827;BME280;65788;52.284;20.890;2023-06-22T12:32:46;100602.02;;;26.50;47.66
76827;BME280;65788;52.284;20.890;2023-06-22T12:35:12;100595.15;;;26.42;47.57
76827;BME280;65788;52.284;20.890;2023-06-22T12:37:41;100595.92;;;26.42;47.78
76827;BME280;65788;52.284;20.890;2023-06-22T12:40:10;100594.52;;;27.23;44.91
76827;BME280;65788;52.284;20.890;2023-06-22T12:42:36;100593.64;;;26.66;47.90
76827;BME280;65788;52.284;20.890;2023-06-22T12:45:04;100592.45;;;26.60;47.88
76827;BME280;65788;52.284;20.890;2023-06-22T12:47:31;100597.85;;;26.55;48.39
76827;BME280;65788;52.284;20.890;2023-06-22T12:49:58;100602.01;;;26.50;48.30
76827;BME280;65788;52.284;20.890;2023-06-22T12:52:25;100602.30;;;26.74;46.35